sensor_id;sensor_type;location;lat;lon;timestamp;P1;durP1;ratioP1;P2;durP2;ratioP2
78402;SDS011;67687;43.508;1.504;2023-07-09T00:01:38;7.15;;;4.18;;
78402;SDS011;67687;43.508;1.504;2023-07-09T00:04:08;8.32;;;4.30;;
78402;SDS011;67687;43.508;1.504;2023-07-09T00:06:36;8.77;;;3.93;;
78402;SDS011;67687;43.508;1.504;2023-07-09T00:09:03;11.35;;;4.57;;
78402;SDS011;67687;43.508;1.504;2023-07-09T00:11:30;8.15;;;4.40;;
78402;SDS011;67687;43.508;1.504;2023-07-09T00:13:57;7.72;;;4.00;;
78402;SDS011;67687;43.508;1.504;2023-07-09T00:16:25;8.63;;;4.30;;
78402;SDS011;67687;43.508;1.504;2023-07-09T00:18:52;9.97;;;4.90;;
78402;SDS011;67687;43.508;1.504;2023-07-09T00:21:20;8.65;;;4.10;;
78402;SDS011;67687;43.508;1.504;2023-07-09T00:23:47;9.07;;;4.30;;
78402;SDS011;67687;43.508;1.504;2023-07-09T00:26:14;7.85;;;3.85;;
78402;SDS011;67687;43.508;1.504;2023-07-09T00:28:42;10.07;;;4.50;;
78402;SDS011;67687;43.508;1.504;2023-07-09T00:31:10;7.10;;;4.10;;
78402;SDS011;67687;43.508;1.504;2023-07-09T00:33:39;10.13;;;4.35;;
78402;SDS011;67687;43.508;1.504;2023-07-09T00:36:08;7.38;;;4.68;;
78402;SDS011;67687;43.508;1.504;2023-07-09T00:38:41;7.28;;;4.30;;
78402;SDS011;67687;43.508;1.504;2023-07-09T00:41:13;9.13;;;4.50;;
78402;SDS011;67687;43.508;1.504;2023-07-09T00:43:43;7.17;;;4.20;;
78402;SDS011;67687;43.508;1.504;2023-07-09T00:46:14;7.25;;;4.10;;
78402;SDS011;67687;43.508;1.504;2023-07-09T00:48:59;8.60;;;4.30;;
78402;SDS011;67687;43.508;1.504;2023-07-09T00:51:30;8.98;;;4.60;;
78402;SDS011;67687;43.508;1.504;2023-07-09T00:53:59;9.15;;;4.85;;
78402;SDS011;67687;43.508;1.504;2023-07-09T00:56:33;9.27;;;4.33;;
78402;SDS011;67687;43.508;1.504;2023-07-09T00:59:13;9.20;;;4.22;;
78402;SDS011;67687;43.508;1.504;2023-07-09T01:01:42;8.95;;;4.28;;
78402;SDS011;67687;43.508;1.504;2023-07-09T01:04:09;8.50;;;4.22;;
78402;SDS011;67687;43.508;1.504;2023-07-09T01:06:37;8.00;;;3.90;;
78402;SDS011;67687;43.508;1.504;2023-07-09T01:09:09;11.20;;;4.30;;
78402;SDS011;67687;43.508;1.504;2023-07-09T01:11:36;7.25;;;4.43;;
78402;SDS011;67687;43.508;1.504;2023-07-09T01:14:03;8.88;;;4.60;;
78402;SDS011;67687;43.508;1.504;2023-07-09T01:16:32;7.45;;;4.60;;
78402;SDS011;67687;43.508;1.504;2023-07-09T01:19:02;8.77;;;4.50;;
78402;SDS011;67687;43.508;1.504;2023-07-09T01:21:31;8.87;;;4.23;;
78402;SDS011;67687;43.508;1.504;2023-07-09T01:23:58;7.50;;;4.55;;
78402;SDS011;67687;43.508;1.504;2023-07-09T01:26:26;8.48;;;4.20;;
78402;SDS011;67687;43.508;1.504;2023-07-09T01:28:54;7.60;;;4.40;;
78402;SDS011;67687;43.508;1.504;2023-07-09T01:31:22;7.82;;;4.40;;
78402;SDS011;67687;43.508;1.504;2023-07-09T01:33:49;9.70;;;4.77;;
78402;SDS011;67687;43.508;1.504;2023-07-09T01:36:17;7.35;;;4.47;;
78402;SDS011;67687;43.508;1.504;2023-07-09T01:38:50;9.15;;;4.63;;
78402;SDS011;67687;43.508;1.504;2023-07-09T01:41:18;7.60;;;4.55;;
78402;SDS011;67687;43.508;1.504;2023-07-09T01:43:45;7.95;;;4.97;;
78402;SDS011;67687;43.508;1.504;2023-07-09T01:46:12;9.67;;;4.60;;
78402;SDS011;67687;43.508;1.504;2023-07-09T01:48:39;8.20;;;4.40;;
78402;SDS011;67687;43.508;1.504;2023-07-09T01:51:07;8.60;;;4.53;;
78402;SDS011;67687;43.508;1.504;2023-07-09T01:53:34;8.60;;;4.80;;
78402;SDS011;67687;43.508;1.504;2023-07-09T01:56:02;9.48;;;4.72;;
78402;SDS011;67687;43.508;1.504;2023-07-09T01:58:32;8.73;;;4.43;;
78402;SDS011;67687;43.508;1.504;2023-07-09T02:00:58;7.85;;;4.68;;
78402;SDS011;67687;43.508;1.504;2023-07-09T02:03:25;9.23;;;4.60;;
78402;SDS011;67687;43.508;1.504;2023-07-09T02:05:52;8.30;;;4.35;;
78402;SDS011;67687;43.508;1.504;2023-07-09T02:08:19;8.23;;;4.75;;
78402;SDS011;67687;43.508;1.504;2023-07-09T02:10:47;7.90;;;4.43;;
78402;SDS011;67687;43.508;1.504;2023-07-09T02:13:16;10.10;;;4.75;;
78402;SDS011;67687;43.508;1.504;2023-07-09T02:15:43;7.65;;;4.75;;
78402;SDS011;67687;43.508;1.504;2023-07-09T02:18:10;8.75;;;4.88;;
78402;SDS011;67687;43.508;1.504;2023-07-09T02:20:37;7.93;;;4.70;;
78402;SDS011;67687;43.508;1.504;2023-07-09T02:23:05;9.57;;;4.47;;
78402;SDS011;67687;43.508;1.504;2023-07-09T02:25:32;6.80;;;4.50;;
78402;SDS011;67687;43.508;1.504;2023-07-09T02:27:59;6.68;;;4.70;;
78402;SDS011;67687;43.508;1.504;2023-07-09T02:30:27;7.72;;;4.60;;
78402;SDS011;67687;43.508;1.504;2023-07-09T02:32:54;11.18;;;4.90;;
78402;SDS011;67687;43.508;1.504;2023-07-09T02:35:20;7.70;;;4.93;;
78402;SDS011;67687;43.508;1.504;2023-07-09T02:37:47;8.80;;;5.13;;
78402;SDS011;67687;43.508;1.504;2023-07-09T02:40:16;9.13;;;4.63;;
78402;SDS011;67687;43.508;1.504;2023-07-09T02:42:42;9.02;;;4.97;;
78402;SDS011;67687;43.508;1.504;2023-07-09T02:45:10;8.57;;;5.00;;
78402;SDS011;67687;43.508;1.504;2023-07-09T02:47:38;8.40;;;4.73;;
78402;SDS011;67687;43.508;1.504;2023-07-09T02:50:05;9.10;;;4.90;;
78402;SDS011;67687;43.508;1.504;2023-07-09T02:52:32;9.45;;;5.05;;
78402;SDS011;67687;43.508;1.504;2023-07-09T02:54:59;9.02;;;5.10;;
78402;SDS011;67687;43.508;1.504;2023-07-09T02:57:26;9.32;;;4.97;;
78402;SDS011;67687;43.508;1.504;2023-07-09T02:59:52;9.30;;;5.00;;
78402;SDS011;67687;43.508;1.504;2023-07-09T03:02:19;10.05;;;5.15;;
78402;SDS011;67687;43.508;1.504;2023-07-09T03:04:47;9.80;;;5.00;;
78402;SDS011;67687;43.508;1.504;2023-07-09T03:07:14;8.23;;;4.88;;
78402;SDS011;67687;43.508;1.504;2023-07-09T03:09:41;8.93;;;4.88;;
78402;SDS011;67687;43.508;1.504;2023-07-09T03:12:08;7.83;;;5.13;;
78402;SDS011;67687;43.508;1.504;2023-07-09T03:14:35;9.60;;;5.03;;
78402;SDS011;67687;43.508;1.504;2023-07-09T03:17:02;8.70;;;4.75;;
78402;SDS011;67687;43.508;1.504;2023-07-09T03:19:29;9.55;;;5.43;;
78402;SDS011;67687;43.508;1.504;2023-07-09T03:21:57;10.50;;;4.88;;
78402;SDS011;67687;43.508;1.504;2023-07-09T03:24:24;8.70;;;5.13;;
78402;SDS011;67687;43.508;1.504;2023-07-09T03:26:51;9.63;;;4.95;;
78402;SDS011;67687;43.508;1.504;2023-07-09T03:29:18;10.20;;;4.90;;
78402;SDS011;67687;43.508;1.504;2023-07-09T03:31:44;7.93;;;4.50;;
78402;SDS011;67687;43.508;1.504;2023-07-09T03:34:11;9.10;;;4.88;;
78402;SDS011;67687;43.508;1.504;2023-07-09T03:36:38;8.70;;;4.90;;
78402;SDS011;67687;43.508;1.504;2023-07-09T03:39:08;7.55;;;4.35;;
78402;SDS011;67687;43.508;1.504;2023-07-09T03:41:35;7.82;;;4.60;;
78402;SDS011;67687;43.508;1.504;2023-07-09T03:44:01;7.85;;;4.80;;
78402;SDS011;67687;43.508;1.504;2023-07-09T03:46:28;7.68;;;4.82;;
78402;SDS011;67687;43.508;1.504;2023-07-09T03:48:57;8.43;;;4.67;;
78402;SDS011;67687;43.508;1.504;2023-07-09T03:51:25;9.35;;;4.85;;
78402;SDS011;67687;43.508;1.504;2023-07-09T03:53:51;8.65;;;4.65;;
78402;SDS011;67687;43.508;1.504;2023-07-09T03:56:19;8.32;;;4.43;;
78402;SDS011;67687;43.508;1.504;2023-07-09T03:58:46;9.40;;;4.43;;
78402;SDS011;67687;43.508;1.504;2023-07-09T04:01:13;7.63;;;4.80;;
78402;SDS011;67687;43.508;1.504;2023-07-09T04:03:41;7.70;;;4.38;;
78402;SDS011;67687;43.508;1.504;2023-07-09T04:06:08;8.32;;;4.30;;
78402;SDS011;67687;43.508;1.504;2023-07-09T04:08:34;7.45;;;4.20;;
78402;SDS011;67687;43.508;1.504;2023-07-09T04:11:02;7.38;;;4.38;;
78402;SDS011;67687;43.508;1.504;2023-07-09T04:13:30;7.93;;;4.23;;
78402;SDS011;67687;43.508;1.504;2023-07-09T04:15:57;7.97;;;4.03;;
78402;SDS011;67687;43.508;1.504;2023-07-09T04:18:24;8.02;;;4.28;;
78402;SDS011;67687;43.508;1.504;2023-07-09T04:20:51;9.15;;;4.47;;
78402;SDS011;67687;43.508;1.504;2023-07-09T04:23:18;8.20;;;4.13;;
78402;SDS011;67687;43.508;1.504;2023-07-09T04:25:45;9.53;;;4.60;;
78402;SDS011;67687;43.508;1.504;2023-07-09T04:28:12;9.48;;;4.65;;
78402;SDS011;67687;43.508;1.504;2023-07-09T04:30:45;8.57;;;4.45;;
78402;SDS011;67687;43.508;1.504;2023-07-09T04:33:14;8.57;;;4.50;;
78402;SDS011;67687;43.508;1.504;2023-07-09T04:35:42;8.43;;;4.35;;
78402;SDS011;67687;43.508;1.504;2023-07-09T04:38:09;7.93;;;4.10;;
78402;SDS011;67687;43.508;1.504;2023-07-09T04:40:36;6.25;;;3.92;;
78402;SDS011;67687;43.508;1.504;2023-07-09T04:43:03;7.50;;;3.80;;
78402;SDS011;67687;43.508;1.504;2023-07-09T04:45:29;9.07;;;4.50;;
78402;SDS011;67687;43.508;1.504;2023-07-09T04:47:57;9.32;;;4.40;;
78402;SDS011;67687;43.508;1.504;2023-07-09T04:50:24;7.20;;;4.10;;
78402;SDS011;67687;43.508;1.504;2023-07-09T04:52:51;8.80;;;3.72;;
78402;SDS011;67687;43.508;1.504;2023-07-09T04:55:18;7.93;;;4.03;;
78402;SDS011;67687;43.508;1.504;2023-07-09T04:57:45;8.00;;;4.43;;
78402;SDS011;67687;43.508;1.504;2023-07-09T05:00:12;8.27;;;4.90;;
78402;SDS011;67687;43.508;1.504;2023-07-09T05:02:40;8.73;;;4.07;;
78402;SDS011;67687;43.508;1.504;2023-07-09T05:05:08;7.65;;;4.35;;
78402;SDS011;67687;43.508;1.504;2023-07-09T05:07:36;7.75;;;6.43;;
78402;SDS011;67687;43.508;1.504;2023-07-09T05:10:03;9.57;;;5.82;;
78402;SDS011;67687;43.508;1.504;2023-07-09T05:12:31;7.22;;;6.53;;
78402;SDS011;67687;43.508;1.504;2023-07-09T05:14:58;7.80;;;7.00;;
78402;SDS011;67687;43.508;1.504;2023-07-09T05:17:24;8.75;;;6.65;;
78402;SDS011;67687;43.508;1.504;2023-07-09T05:19:51;9.18;;;6.80;;
78402;SDS011;67687;43.508;1.504;2023-07-09T05:22:19;8.40;;;7.60;;
78402;SDS011;67687;43.508;1.504;2023-07-09T05:24:46;9.38;;;8.38;;
78402;SDS011;67687;43.508;1.504;2023-07-09T05:27:13;12.10;;;10.77;;
78402;SDS011;67687;43.508;1.504;2023-07-09T05:29:39;9.45;;;7.90;;
78402;SDS011;67687;43.508;1.504;2023-07-09T05:32:06;11.10;;;9.00;;
78402;SDS011;67687;43.508;1.504;2023-07-09T05:34:33;10.18;;;8.82;;
78402;SDS011;67687;43.508;1.504;2023-07-09T05:37:00;9.57;;;8.38;;
78402;SDS011;67687;43.508;1.504;2023-07-09T05:39:28;10.80;;;7.87;;
78402;SDS011;67687;43.508;1.504;2023-07-09T05:41:54;9.70;;;7.50;;
78402;SDS011;67687;43.508;1.504;2023-07-09T05:44:21;10.02;;;9.13;;
78402;SDS011;67687;43.508;1.504;2023-07-09T05:46:48;6.75;;;4.90;;
78402;SDS011;67687;43.508;1.504;2023-07-09T05:49:15;10.30;;;8.70;;
78402;SDS011;67687;43.508;1.504;2023-07-09T05:51:41;10.83;;;9.73;;
78402;SDS011;67687;43.508;1.504;2023-07-09T05:54:08;9.07;;;6.88;;
78402;SDS011;67687;43.508;1.504;2023-07-09T05:56:37;9.55;;;5.22;;
78402;SDS011;67687;43.508;1.504;2023-07-09T05:59:04;10.80;;;9.75;;
78402;SDS011;67687;43.508;1.504;2023-07-09T06:01:31;10.68;;;8.02;;
78402;SDS011;67687;43.508;1.504;2023-07-09T06:03:57;8.90;;;6.70;;
78402;SDS011;67687;43.508;1.504;2023-07-09T06:06:25;9.43;;;7.43;;
78402;SDS011;67687;43.508;1.504;2023-07-09T06:08:53;12.45;;;11.35;;
78402;SDS011;67687;43.508;1.504;2023-07-09T06:11:19;12.27;;;10.95;;
78402;SDS011;67687;43.508;1.504;2023-07-09T06:13:49;10.73;;;9.48;;
78402;SDS011;67687;43.508;1.504;2023-07-09T06:16:15;9.27;;;8.33;;
78402;SDS011;67687;43.508;1.504;2023-07-09T06:18:42;10.35;;;8.23;;
78402;SDS011;67687;43.508;1.504;2023-07-09T06:21:09;8.40;;;5.45;;
78402;SDS011;67687;43.508;1.504;2023-07-09T06:23:37;8.50;;;4.63;;
78402;SDS011;67687;43.508;1.504;2023-07-09T06:26:04;7.97;;;4.50;;
78402;SDS011;67687;43.508;1.504;2023-07-09T06:28:31;9.93;;;4.77;;
78402;SDS011;67687;43.508;1.504;2023-07-09T06:30:59;7.55;;;4.13;;
78402;SDS011;67687;43.508;1.504;2023-07-09T06:33:26;7.32;;;4.40;;
78402;SDS011;67687;43.508;1.504;2023-07-09T06:35:54;9.98;;;4.47;;
78402;SDS011;67687;43.508;1.504;2023-07-09T06:38:21;8.60;;;4.90;;
78402;SDS011;67687;43.508;1.504;2023-07-09T06:40:48;8.47;;;5.03;;
78402;SDS011;67687;43.508;1.504;2023-07-09T06:43:15;10.18;;;4.90;;
78402;SDS011;67687;43.508;1.504;2023-07-09T06:45:48;8.23;;;4.38;;
78402;SDS011;67687;43.508;1.504;2023-07-09T06:48:17;9.57;;;4.75;;
78402;SDS011;67687;43.508;1.504;2023-07-09T06:50:45;8.93;;;5.28;;
78402;SDS011;67687;43.508;1.504;2023-07-09T06:53:11;9.30;;;5.40;;
78402;SDS011;67687;43.508;1.504;2023-07-09T06:55:38;9.57;;;5.80;;
78402;SDS011;67687;43.508;1.504;2023-07-09T06:58:05;11.65;;;6.38;;
78402;SDS011;67687;43.508;1.504;2023-07-09T07:00:33;8.90;;;5.57;;
78402;SDS011;67687;43.508;1.504;2023-07-09T07:03:00;9.60;;;5.75;;
78402;SDS011;67687;43.508;1.504;2023-07-09T07:05:28;10.60;;;6.10;;
78402;SDS011;67687;43.508;1.504;2023-07-09T07:07:55;11.60;;;6.20;;
78402;SDS011;67687;43.508;1.504;2023-07-09T07:10:21;8.10;;;5.70;;
78402;SDS011;67687;43.508;1.504;2023-07-09T07:12:48;11.38;;;6.47;;
78402;SDS011;67687;43.508;1.504;2023-07-09T07:15:16;9.95;;;5.85;;
78402;SDS011;67687;43.508;1.504;2023-07-09T07:17:43;6.70;;;5.20;;
78402;SDS011;67687;43.508;1.504;2023-07-09T07:20:11;9.95;;;5.30;;
78402;SDS011;67687;43.508;1.504;2023-07-09T07:22:39;8.32;;;4.90;;
78402;SDS011;67687;43.508;1.504;2023-07-09T07:25:07;7.22;;;4.18;;
78402;SDS011;67687;43.508;1.504;2023-07-09T07:27:34;6.07;;;4.57;;
78402;SDS011;67687;43.508;1.504;2023-07-09T07:30:02;8.10;;;4.20;;
78402;SDS011;67687;43.508;1.504;2023-07-09T07:32:29;6.78;;;4.38;;
78402;SDS011;67687;43.508;1.504;2023-07-09T07:34:55;8.35;;;4.68;;
78402;SDS011;67687;43.508;1.504;2023-07-09T07:37:22;9.48;;;4.30;;
78402;SDS011;67687;43.508;1.504;2023-07-09T07:39:50;7.97;;;5.03;;
78402;SDS011;67687;43.508;1.504;2023-07-09T07:42:17;10.47;;;4.70;;
78402;SDS011;67687;43.508;1.504;2023-07-09T07:44:44;6.40;;;4.22;;
78402;SDS011;67687;43.508;1.504;2023-07-09T07:47:11;8.30;;;4.57;;
78402;SDS011;67687;43.508;1.504;2023-07-09T07:49:38;6.53;;;3.83;;
78402;SDS011;67687;43.508;1.504;2023-07-09T07:52:06;7.93;;;3.97;;
78402;SDS011;67687;43.508;1.504;2023-07-09T07:54:33;8.20;;;4.20;;
78402;SDS011;67687;43.508;1.504;2023-07-09T07:57:01;7.32;;;4.22;;
78402;SDS011;67687;43.508;1.504;2023-07-09T07:59:28;8.15;;;4.38;;
78402;SDS011;67687;43.508;1.504;2023-07-09T08:01:57;7.38;;;4.20;;
78402;SDS011;67687;43.508;1.504;2023-07-09T08:04:24;6.78;;;3.88;;
78402;SDS011;67687;43.508;1.504;2023-07-09T08:06:51;7.17;;;4.03;;
78402;SDS011;67687;43.508;1.504;2023-07-09T08:09:18;7.28;;;4.05;;
78402;SDS011;67687;43.508;1.504;2023-07-09T08:11:45;9.05;;;4.20;;
78402;SDS011;67687;43.508;1.504;2023-07-09T08:14:13;9.98;;;4.68;;
78402;SDS011;67687;43.508;1.504;2023-07-09T08:16:39;8.15;;;4.82;;
78402;SDS011;67687;43.508;1.504;2023-07-09T08:19:06;14.73;;;10.03;;
78402;SDS011;67687;43.508;1.504;2023-07-09T08:21:33;15.20;;;12.60;;
78402;SDS011;67687;43.508;1.504;2023-07-09T08:24:00;16.17;;;13.68;;
78402;SDS011;67687;43.508;1.504;2023-07-09T08:26:27;15.57;;;12.82;;
78402;SDS011;67687;43.508;1.504;2023-07-09T08:28:53;16.55;;;13.32;;
78402;SDS011;67687;43.508;1.504;2023-07-09T08:31:22;14.17;;;12.30;;
78402;SDS011;67687;43.508;1.504;2023-07-09T08:33:48;17.33;;;14.57;;
78402;SDS011;67687;43.508;1.504;2023-07-09T08:36:15;15.43;;;12.45;;
78402;SDS011;67687;43.508;1.504;2023-07-09T08:38:42;16.33;;;13.05;;
78402;SDS011;67687;43.508;1.504;2023-07-09T08:41:15;15.95;;;12.57;;
78402;SDS011;67687;43.508;1.504;2023-07-09T08:43:49;15.53;;;12.17;;
78402;SDS011;67687;43.508;1.504;2023-07-09T08:46:27;15.77;;;12.35;;
78402;SDS011;67687;43.508;1.504;2023-07-09T08:48:57;16.77;;;12.57;;
78402;SDS011;67687;43.508;1.504;2023-07-09T08:51:26;20.13;;;11.82;;
78402;SDS011;67687;43.508;1.504;2023-07-09T08:53:56;16.38;;;12.60;;
78402;SDS011;67687;43.508;1.504;2023-07-09T08:56:24;15.77;;;12.50;;
78402;SDS011;67687;43.508;1.504;2023-07-09T08:58:52;14.32;;;12.02;;
78402;SDS011;67687;43.508;1.504;2023-07-09T09:01:20;14.05;;;11.85;;
78402;SDS011;67687;43.508;1.504;2023-07-09T09:03:51;16.02;;;13.00;;
78402;SDS011;67687;43.508;1.504;2023-07-09T09:06:20;14.07;;;11.38;;
78402;SDS011;67687;43.508;1.504;2023-07-09T09:08:52;15.73;;;12.40;;
78402;SDS011;67687;43.508;1.504;2023-07-09T09:11:27;14.85;;;13.25;;
78402;SDS011;67687;43.508;1.504;2023-07-09T09:13:58;14.23;;;11.90;;
78402;SDS011;67687;43.508;1.504;2023-07-09T09:16:29;15.63;;;12.88;;
78402;SDS011;67687;43.508;1.504;2023-07-09T09:18:59;15.77;;;12.52;;
78402;SDS011;67687;43.508;1.504;2023-07-09T09:21:26;14.90;;;12.37;;
78402;SDS011;67687;43.508;1.504;2023-07-09T09:23:56;15.20;;;12.73;;
78402;SDS011;67687;43.508;1.504;2023-07-09T09:26:26;14.25;;;11.75;;
78402;SDS011;67687;43.508;1.504;2023-07-09T09:28:55;13.73;;;11.93;;
78402;SDS011;67687;43.508;1.504;2023-07-09T09:31:23;15.23;;;12.98;;
78402;SDS011;67687;43.508;1.504;2023-07-09T09:33:50;13.77;;;12.27;;
78402;SDS011;67687;43.508;1.504;2023-07-09T09:36:19;15.98;;;12.48;;
78402;SDS011;67687;43.508;1.504;2023-07-09T09:38:47;14.52;;;11.90;;
78402;SDS011;67687;43.508;1.504;2023-07-09T09:41:16;13.55;;;12.15;;
78402;SDS011;67687;43.508;1.504;2023-07-09T09:43:45;15.07;;;12.82;;
78402;SDS011;67687;43.508;1.504;2023-07-09T09:46:18;16.07;;;12.53;;
78402;SDS011;67687;43.508;1.504;2023-07-09T09:48:47;14.57;;;12.15;;
78402;SDS011;67687;43.508;1.504;2023-07-09T09:51:14;14.68;;;12.57;;
78402;SDS011;67687;43.508;1.504;2023-07-09T09:53:46;13.95;;;12.40;;
78402;SDS011;67687;43.508;1.504;2023-07-09T09:56:17;16.38;;;13.00;;
78402;SDS011;67687;43.508;1.504;2023-07-09T09:58:45;15.40;;;12.43;;
78402;SDS011;67687;43.508;1.504;2023-07-09T10:01:13;15.73;;;12.90;;
78402;SDS011;67687;43.508;1.504;2023-07-09T10:03:41;15.05;;;12.73;;
78402;SDS011;67687;43.508;1.504;2023-07-09T10:06:12;15.48;;;13.13;;
78402;SDS011;67687;43.508;1.504;2023-07-09T10:08:43;23.98;;;19.85;;
78402;SDS011;67687;43.508;1.504;2023-07-09T10:11:18;15.47;;;12.70;;
78402;SDS011;67687;43.508;1.504;2023-07-09T10:13:46;13.80;;;12.32;;
78402;SDS011;67687;43.508;1.504;2023-07-09T10:16:17;19.27;;;16.00;;
78402;SDS011;67687;43.508;1.504;2023-07-09T10:18:50;14.98;;;12.90;;
78402;SDS011;67687;43.508;1.504;2023-07-09T10:21:22;13.55;;;12.25;;
78402;SDS011;67687;43.508;1.504;2023-07-09T10:23:54;15.47;;;12.90;;
78402;SDS011;67687;43.508;1.504;2023-07-09T10:26:29;16.02;;;13.43;;
78402;SDS011;67687;43.508;1.504;2023-07-09T10:29:05;15.65;;;12.77;;
78402;SDS011;67687;43.508;1.504;2023-07-09T10:31:44;14.05;;;12.65;;
78402;SDS011;67687;43.508;1.504;2023-07-09T10:34:18;13.60;;;12.20;;
78402;SDS011;67687;43.508;1.504;2023-07-09T10:36:56;15.20;;;13.13;;
78402;SDS011;67687;43.508;1.504;2023-07-09T10:39:37;15.05;;;13.10;;
78402;SDS011;67687;43.508;1.504;2023-07-09T10:42:07;14.05;;;12.55;;
78402;SDS011;67687;43.508;1.504;2023-07-09T10:44:42;17.98;;;13.75;;
78402;SDS011;67687;43.508;1.504;2023-07-09T10:47:13;18.02;;;13.07;;
78402;SDS011;67687;43.508;1.504;2023-07-09T10:49:49;16.47;;;12.97;;
78402;SDS011;67687;43.508;1.504;2023-07-09T10:52:17;14.88;;;13.20;;
78402;SDS011;67687;43.508;1.504;2023-07-09T10:54:51;13.43;;;12.02;;
78402;SDS011;67687;43.508;1.504;2023-07-09T10:57:24;14.55;;;13.00;;
78402;SDS011;67687;43.508;1.504;2023-07-09T10:59:54;15.13;;;13.25;;
78402;SDS011;67687;43.508;1.504;2023-07-09T11:02:21;15.53;;;13.70;;
78402;SDS011;67687;43.508;1.504;2023-07-09T11:04:51;14.85;;;13.27;;
78402;SDS011;67687;43.508;1.504;2023-07-09T11:07:21;16.38;;;13.05;;
78402;SDS011;67687;43.508;1.504;2023-07-09T11:09:53;16.35;;;13.40;;
78402;SDS011;67687;43.508;1.504;2023-07-09T11:12:24;15.90;;;13.68;;
78402;SDS011;67687;43.508;1.504;2023-07-09T11:14:56;14.20;;;12.70;;
78402;SDS011;67687;43.508;1.504;2023-07-09T11:17:25;14.80;;;13.15;;
78402;SDS011;67687;43.508;1.504;2023-07-09T11:19:54;14.73;;;12.50;;
78402;SDS011;67687;43.508;1.504;2023-07-09T11:22:21;14.63;;;13.13;;
78402;SDS011;67687;43.508;1.504;2023-07-09T11:24:50;17.65;;;13.07;;
78402;SDS011;67687;43.508;1.504;2023-07-09T11:27:20;13.43;;;12.03;;
78402;SDS011;67687;43.508;1.504;2023-07-09T11:29:57;16.13;;;13.15;;
78402;SDS011;67687;43.508;1.504;2023-07-09T11:32:25;16.25;;;13.15;;
78402;SDS011;67687;43.508;1.504;2023-07-09T11:34:53;13.38;;;11.95;;
78402;SDS011;67687;43.508;1.504;2023-07-09T11:37:20;14.60;;;12.15;;
78402;SDS011;67687;43.508;1.504;2023-07-09T11:39:51;14.30;;;12.80;;
78402;SDS011;67687;43.508;1.504;2023-07-09T11:42:26;15.02;;;13.00;;
78402;SDS011;67687;43.508;1.504;2023-07-09T11:44:59;16.23;;;13.00;;
78402;SDS011;67687;43.508;1.504;2023-07-09T11:47:30;14.38;;;12.60;;
78402;SDS011;67687;43.508;1.504;2023-07-09T11:50:02;15.13;;;12.55;;
78402;SDS011;67687;43.508;1.504;2023-07-09T11:52:33;13.57;;;12.17;;
78402;SDS011;67687;43.508;1.504;2023-07-09T11:55:14;14.82;;;12.82;;
78402;SDS011;67687;43.508;1.504;2023-07-09T11:57:53;14.30;;;12.00;;
78402;SDS011;67687;43.508;1.504;2023-07-09T12:00:21;14.45;;;12.18;;
78402;SDS011;67687;43.508;1.504;2023-07-09T12:02:48;14.20;;;11.80;;
78402;SDS011;67687;43.508;1.504;2023-07-09T12:05:17;14.27;;;12.67;;
78402;SDS011;67687;43.508;1.504;2023-07-09T12:07:46;14.27;;;12.15;;
78402;SDS011;67687;43.508;1.504;2023-07-09T12:10:17;13.02;;;11.63;;
78402;SDS011;67687;43.508;1.504;2023-07-09T12:12:46;13.18;;;11.02;;
78402;SDS011;67687;43.508;1.504;2023-07-09T12:15:17;15.82;;;11.85;;
78402;SDS011;67687;43.508;1.504;2023-07-09T12:17:52;15.37;;;11.60;;
78402;SDS011;67687;43.508;1.504;2023-07-09T12:20:22;17.33;;;11.32;;
78402;SDS011;67687;43.508;1.504;2023-07-09T12:22:49;15.68;;;11.40;;
78402;SDS011;67687;43.508;1.504;2023-07-09T12:25:20;13.63;;;10.90;;
78402;SDS011;67687;43.508;1.504;2023-07-09T12:27:48;13.75;;;11.32;;
78402;SDS011;67687;43.508;1.504;2023-07-09T12:30:17;13.03;;;11.63;;
78402;SDS011;67687;43.508;1.504;2023-07-09T12:32:44;12.57;;;11.15;;
78402;SDS011;67687;43.508;1.504;2023-07-09T12:35:12;13.48;;;11.73;;
78402;SDS011;67687;43.508;1.504;2023-07-09T12:37:40;13.20;;;11.80;;
78402;SDS011;67687;43.508;1.504;2023-07-09T12:40:12;13.25;;;10.48;;
78402;SDS011;67687;43.508;1.504;2023-07-09T12:42:41;14.90;;;10.67;;
78402;SDS011;67687;43.508;1.504;2023-07-09T12:45:12;14.43;;;10.93;;
78402;SDS011;67687;43.508;1.504;2023-07-09T12:47:42;13.80;;;10.63;;
78402;SDS011;67687;43.508;1.504;2023-07-09T12:50:16;11.95;;;10.20;;
78402;SDS011;67687;43.508;1.504;2023-07-09T12:52:45;12.55;;;11.02;;
78402;SDS011;67687;43.508;1.504;2023-07-09T12:55:19;11.63;;;10.13;;
78402;SDS011;67687;43.508;1.504;2023-07-09T12:57:46;13.90;;;10.68;;
78402;SDS011;67687;43.508;1.504;2023-07-09T13:00:13;12.48;;;10.23;;
78402;SDS011;67687;43.508;1.504;2023-07-09T13:02:42;12.55;;;9.65;;
78402;SDS011;67687;43.508;1.504;2023-07-09T13:05:16;12.15;;;10.85;;
78402;SDS011;67687;43.508;1.504;2023-07-09T13:07:46;11.33;;;9.87;;
78402;SDS011;67687;43.508;1.504;2023-07-09T13:10:16;11.88;;;9.90;;
78402;SDS011;67687;43.508;1.504;2023-07-09T13:12:44;14.77;;;10.73;;
78402;SDS011;67687;43.508;1.504;2023-07-09T13:15:23;11.75;;;10.07;;
78402;SDS011;67687;43.508;1.504;2023-07-09T13:17:59;13.13;;;10.05;;
78402;SDS011;67687;43.508;1.504;2023-07-09T13:20:27;12.43;;;10.07;;
78402;SDS011;67687;43.508;1.504;2023-07-09T13:22:54;11.73;;;10.30;;
78402;SDS011;67687;43.508;1.504;2023-07-09T13:25:20;11.13;;;9.82;;
78402;SDS011;67687;43.508;1.504;2023-07-09T13:27:47;11.70;;;9.60;;
78402;SDS011;67687;43.508;1.504;2023-07-09T13:30:14;12.18;;;9.75;;
78402;SDS011;67687;43.508;1.504;2023-07-09T13:32:41;11.60;;;9.97;;
78402;SDS011;67687;43.508;1.504;2023-07-09T13:35:14;12.60;;;10.07;;
78402;SDS011;67687;43.508;1.504;2023-07-09T13:37:41;11.60;;;9.75;;
78402;SDS011;67687;43.508;1.504;2023-07-09T13:40:09;12.95;;;9.80;;
78402;SDS011;67687;43.508;1.504;2023-07-09T13:42:37;12.00;;;9.55;;
78402;SDS011;67687;43.508;1.504;2023-07-09T13:45:08;10.83;;;9.37;;
78402;SDS011;67687;43.508;1.504;2023-07-09T13:47:42;10.43;;;8.57;;
78402;SDS011;67687;43.508;1.504;2023-07-09T13:50:09;10.85;;;9.20;;
78402;SDS011;67687;43.508;1.504;2023-07-09T13:52:37;10.63;;;9.00;;
78402;SDS011;67687;43.508;1.504;2023-07-09T13:55:04;12.25;;;9.57;;
78402;SDS011;67687;43.508;1.504;2023-07-09T13:57:32;11.07;;;8.93;;
78402;SDS011;67687;43.508;1.504;2023-07-09T13:59:58;12.10;;;9.07;;
78402;SDS011;67687;43.508;1.504;2023-07-09T14:02:26;11.32;;;8.85;;
78402;SDS011;67687;43.508;1.504;2023-07-09T14:04:56;10.23;;;8.75;;
78402;SDS011;67687;43.508;1.504;2023-07-09T14:07:25;11.23;;;8.68;;
78402;SDS011;67687;43.508;1.504;2023-07-09T14:09:54;11.03;;;8.53;;
78402;SDS011;67687;43.508;1.504;2023-07-09T14:12:21;10.93;;;8.63;;
78402;SDS011;67687;43.508;1.504;2023-07-09T14:14:49;10.80;;;8.43;;
78402;SDS011;67687;43.508;1.504;2023-07-09T14:17:16;10.95;;;9.07;;
78402;SDS011;67687;43.508;1.504;2023-07-09T14:19:43;9.82;;;8.32;;
78402;SDS011;67687;43.508;1.504;2023-07-09T14:22:18;9.57;;;7.97;;
78402;SDS011;67687;43.508;1.504;2023-07-09T14:24:49;12.52;;;8.48;;
78402;SDS011;67687;43.508;1.504;2023-07-09T14:27:17;10.50;;;7.68;;
78402;SDS011;67687;43.508;1.504;2023-07-09T14:29:44;10.93;;;8.55;;
78402;SDS011;67687;43.508;1.504;2023-07-09T14:32:21;11.60;;;8.23;;
78402;SDS011;67687;43.508;1.504;2023-07-09T14:34:54;9.57;;;8.33;;
78402;SDS011;67687;43.508;1.504;2023-07-09T14:37:21;9.77;;;8.18;;
78402;SDS011;67687;43.508;1.504;2023-07-09T14:39:47;10.02;;;8.10;;
78402;SDS011;67687;43.508;1.504;2023-07-09T14:42:14;10.45;;;7.93;;
78402;SDS011;67687;43.508;1.504;2023-07-09T14:44:42;11.10;;;8.07;;